• pl
  • eng

Awiacja
TAF FC 06:30 18.02.2018
  • WIND
  • SIGNIFICANT EURO
  • SIGNIFICANT
  • SIGMET
  • AIRMET
  • TAF FC
  • TAF FT
  • METAR GG30
  • METAR GG00


TAF EPLB 180530Z 1806/1815 28004KT 7000 BKN020
BECMG 1806/1808 34010KT
TEMPO 1806/1811 3000 -SN BR BKN005=

TAF EPRA 180530Z 1806/1815 34008KT 8000 SCT009 BKN020
TEMPO 1806/1809 3000 -SN BR BKN008=

TAF EPZG 180530Z 1806/1815 34004KT 9999 BKN035
TEMPO 1806/1810 4000 BR BKN008 BKN015=
Awiacja.imgw.pl jest pogodowym serwisem informacyjnym
Instytutu Meteorologii i Gospodarki Wodnej Państwowego Instytutu Badawczego.
Copyright IMGW PIB 2009-2011© Wszelkie prawa zastrzeżone.